^^
Datos históricos de la estación: Murcia-Puente Tocinos
Diario Informe para Enero 28, 2022 Unidades:  Ingés    Métrico   Ambas
Diario Semanal Mensual Anual
  Máxima: Mínima: Promedio:
Temperatura: 60.6 °F 43.9 °F 50.7 °F
Punto de rocio: 46.9 °F 39.6 °F 43.3 °F
Humedad: 92% 48% 77%
Velocidad viento: 7.6mph 0mph 3.9mph
Racha viento: 13.8mph - -
Viento- - SSE
Presión: 30.5 in 30.4 in -
Precipitación: 0 in    
 
 
Tabla de datos para Enero 28, 2022
Hora Temperatura Punto de rocio Presión Viento Velocidad viento Racha viento Humedad Intensidad lluvia(por hora) Nubes
00:04 49.5 °F 46.9 °F 30.4 in SO 2 mph 4.7 mph 91% 0 in
00:09 49.5 °F 46.9 °F 30.4 in SO 2.2 mph 4.7 mph 91% 0 in
00:14 49.5 °F 46.9 °F 30.4 in OSO 3.1 mph 2.9 mph 91% 0 in
00:19 49.3 °F 46.8 °F 30.4 in OSO 2.9 mph 3.6 mph 91% 0 in
00:24 49.1 °F 46.6 °F 30.4 in OSO 1.8 mph 3.5 mph 91% 0 in
00:29 48.9 °F 46.4 °F 30.4 in OSO 1.8 mph 3.6 mph 91% 0 in
00:34 48.9 °F 46.4 °F 30.4 in Oeste 2 mph 4.6 mph 91% 0 in
00:39 48.7 °F 46.2 °F 30.4 in Oeste 2 mph 3.6 mph 91% 0 in
00:44 48.7 °F 46.2 °F 30.4 in OSO 2 mph 4.6 mph 91% 0 in
00:49 48.6 °F 46 °F 30.4 in OSO 2.1 mph 4.6 mph 91% 0 in
00:54 48.4 °F 45.9 °F 30.4 in OSO 2.4 mph 2.9 mph 91% 0 in
00:59 48.4 °F 45.9 °F 30.4 in OSO 2.2 mph 2.3 mph 91% 0 in
01:04 48.4 °F 46.2 °F 30.4 in OSO 1.4 mph 2.4 mph 92% 0 in
01:09 48.4 °F 46.2 °F 30.4 in OSO 1.4 mph 3.5 mph 92% 0 in
01:14 48.2 °F 45.9 °F 30.4 in OSO 1.4 mph 4.6 mph 91% 0 in
01:19 48.2 °F 45.9 °F 30.4 in SO 1.5 mph 2.4 mph 91.2% 0 in
01:24 48.2 °F 45.7 °F 30.4 in SO 1.8 mph 3.5 mph 91.2% 0 in
01:29 48.2 °F 45.7 °F 30.4 in SO 1.7 mph 3.1 mph 91% 0 in
01:34 48.2 °F 45.7 °F 30.4 in SO 1.4 mph 4.6 mph 91% 0 in
01:39 48.4 °F 45.9 °F 30.4 in SSO 1.7 mph 4.7 mph 91% 0 in
01:44 48.4 °F 45.9 °F 30.4 in Sur 3.1 mph 3.6 mph 91% 0 in
01:49 48.6 °F 46 °F 30.4 in SSO 3 mph 4.6 mph 91% 0 in
01:54 48.6 °F 46 °F 30.4 in ONO 2.4 mph 4.6 mph 91% 0 in
01:59 48.7 °F 46.2 °F 30.4 in ONO 2.2 mph 3.6 mph 91% 0 in
02:04 48.7 °F 46.2 °F 30.4 in Sur 1.4 mph 3.5 mph 91% 0 in
02:09 48.7 °F 46.2 °F 30.4 in Sur 1.4 mph 3.1 mph 91% 0 in
02:14 48.7 °F 46.2 °F 30.4 in SE 1.8 mph 4.7 mph 91% 0 in
02:19 48.7 °F 46.2 °F 30.4 in SSO 2.1 mph 6.2 mph 91% 0 in
02:24 48.6 °F 45.9 °F 30.4 in SSO 3.6 mph 5.2 mph 90.3% 0 in
02:29 48.4 °F 45.7 °F 30.4 in Sur 3.6 mph 4.7 mph 90% 0 in
02:34 48.4 °F 45.7 °F 30.4 in SSO 3.6 mph 4.6 mph 90% 0 in
02:39 48.4 °F 45.7 °F 30.4 in Sur 3.5 mph 4.6 mph 90% 0 in
02:44 48.4 °F 45.7 °F 30.4 in Sur 2.9 mph 4.6 mph 90% 0 in
02:49 48.2 °F 45.5 °F 30.4 in Sur 2.9 mph 5.2 mph 90% 0 in
02:54 48 °F 45.3 °F 30.4 in SSO 3.1 mph 5.8 mph 90% 0 in
02:59 47.8 °F 45.1 °F 30.4 in SSO 3 mph 4.7 mph 90% 0 in
03:04 47.8 °F 45 °F 30.4 in Sur 2.9 mph 5.2 mph 90% 0 in
03:09 47.7 °F 45 °F 30.4 in SSO 3 mph 5.2 mph 90% 0 in
03:14 47.7 °F 45 °F 30.4 in SO 3.6 mph 5.2 mph 90% 0 in
03:19 47.7 °F 45 °F 30.4 in SSO 3.5 mph 5.2 mph 90% 0 in
03:24 47.5 °F 44.8 °F 30.4 in SSO 3.1 mph 4.7 mph 90% 0 in
03:29 47.5 °F 44.4 °F 30.4 in SO 3.1 mph 5.2 mph 89% 0 in
03:34 47.5 °F 44.4 °F 30.4 in SSO 3.1 mph 5.2 mph 89% 0 in
03:39 47.5 °F 44.4 °F 30.4 in SSE 3.1 mph 5.9 mph 89% 0 in
03:44 47.5 °F 44.2 °F 30.4 in SSO 3.1 mph 5.8 mph 89% 0 in
03:49 47.3 °F 44.2 °F 30.4 in SSO 3 mph 4.6 mph 89% 0 in
03:54 47.3 °F 44.1 °F 30.4 in OSO 2.9 mph 3.6 mph 89% 0 in
03:59 47.1 °F 44.1 °F 30.4 in Oeste 2.7 mph 3.6 mph 88.9% 0 in
04:04 47.1 °F 44.1 °F 30.4 in Oeste 2 mph 2.9 mph 89% 0 in
04:09 47.1 °F 44.1 °F 30.4 in Oeste 2 mph 2.9 mph 89% 0 in
04:14 47.1 °F 44.1 °F 30.4 in Oeste 1.8 mph 2.3 mph 89% 0 in
04:19 47.1 °F 44.1 °F 30.4 in Oeste 1.6 mph 2.9 mph 89% 0 in
04:24 47.1 °F 44.1 °F 30.4 in Calm   4.7 mph 89% 0 in
04:29 46.9 °F 43.7 °F 30.4 in SSO 0.4 mph 6.9 mph 88.4% 0 in
04:34 46.9 °F 43.7 °F 30.4 in SO 3.1 mph 5.8 mph 88.6% 0 in
04:39 46.9 °F 43.9 °F 30.4 in SO 3.1 mph 6.9 mph 89% 0 in
04:44 46.9 °F 43.9 °F 30.4 in SSE 3.1 mph 5.8 mph 89% 0 in
04:49 46.9 °F 43.9 °F 30.4 in Sur 3 mph 5.2 mph 89% 0 in
04:54 47.1 °F 43.7 °F 30.4 in SSO 2.4 mph 4.7 mph 88.1% 0 in
04:59 47.1 °F 43.7 °F 30.4 in SSO 2.5 mph 5.8 mph 88% 0 in
05:04 47.1 °F 43.7 °F 30.4 in SO 3.1 mph 5.8 mph 88% 0 in
05:09 47.3 °F 43.9 °F 30.4 in SO 3 mph 5.4 mph 88% 0 in
05:14 47.3 °F 43.9 °F 30.4 in SO 2.9 mph 7.4 mph 87.7% 0 in
05:19 47.1 °F 43.3 °F 30.4 in SO 3.2 mph 8.1 mph 87% 0 in
05:24 46.9 °F 43.3 °F 30.4 in SO 5.2 mph 6.9 mph 87% 0 in
05:29 47.1 °F 43.3 °F 30.4 in SSO 5.2 mph 9.7 mph 87% 0 in
05:34 47.1 °F 43.3 °F 30.4 in SSO 4.7 mph 6.9 mph 87% 0 in
05:39 47.1 °F 43.3 °F 30.4 in Sur 4.7 mph 6.9 mph 87% 0 in
05:44 46.9 °F 43.3 °F 30.4 in Sur 4.3 mph 6.2 mph 87% 0 in
05:49 46.9 °F 43.3 °F 30.4 in SSO 4.2 mph 6.9 mph 87% 0 in
05:54 46.9 °F 43.2 °F 30.4 in SSO 4 mph 8.1 mph 87% 0 in
05:59 46.8 °F 43.2 °F 30.4 in Sur 4 mph 8.1 mph 87% 0 in
06:04 46.6 °F 43 °F 30.4 in SSE 4 mph 6.9 mph 87% 0 in
06:09 46.6 °F 42.8 °F 30.4 in Sur 4.1 mph 7.4 mph 87% 0 in
06:14 46.2 °F 42.6 °F 30.4 in Sur 4.7 mph 8.5 mph 87% 0 in
06:19 46 °F 42.4 °F 30.4 in Sur 4.8 mph 8.7 mph 87% 0 in
06:24 45.9 °F 42.3 °F 30.4 in Sur 5.4 mph 9.2 mph 87% 0 in
06:29 45.9 °F 42.3 °F 30.4 in Sur 5.3 mph 8.1 mph 87% 0 in
06:34 45.9 °F 42.3 °F 30.4 in SSO 5.2 mph 8.1 mph 87% 0 in
06:39 45.9 °F 42.3 °F 30.4 in Sur 5.2 mph 8.7 mph 87% 0 in
06:44 45.9 °F 42.1 °F 30.4 in Sur 5.2 mph 9.2 mph 87% 0 in
06:49 45.7 °F 42.1 °F 30.4 in Sur 5.3 mph 9.7 mph 87% 0 in
06:54 45.7 °F 42.1 °F 30.4 in SSO 6.2 mph 10.4 mph 87% 0 in
06:59 45.7 °F 42.1 °F 30.4 in SSO 6.2 mph 10.4 mph 87% 0 in
07:04 45.7 °F 42.1 °F 30.4 in Sur 6.2 mph 8.1 mph 86.8% 0 in
07:09 45.7 °F 41.7 °F 30.4 in Sur 6.1 mph 9.2 mph 86% 0 in
07:14 45.7 °F 41.7 °F 30.4 in Sur 5.4 mph 9.2 mph 86% 0 in
07:19 45.5 °F 41.5 °F 30.4 in SSO 5.5 mph 9.7 mph 86% 0 in
07:24 45.1 °F 41.4 °F 30.4 in Sur 6.2 mph 9.2 mph 86% 0 in
07:29 45 °F 41.2 °F 30.4 in Sur 6.2 mph 9.7 mph 86% 0 in
07:34 45 °F 41.2 °F 30.4 in Sur 5.9 mph 8.1 mph 86.9% 0 in
07:39 44.8 °F 41 °F 30.4 in Sur 5.9 mph 10.4 mph 86.8% 0 in
07:44 44.8 °F 41 °F 30.4 in SSO 5.9 mph 8.5 mph 87% 0 in
07:49 44.6 °F 41 °F 30.4 in SSO 5.9 mph 10.4 mph 87% 0 in
07:54 44.8 °F 41 °F 30.4 in Sur 5.9 mph 9.2 mph 86.8% 0 in
07:59 44.6 °F 40.8 °F 30.4 in SSO 5.9 mph 10 mph 86% 0 in
08:04 44.6 °F 40.6 °F 30.4 in SSO 5.9 mph 10.4 mph 86% 0 in
08:09 44.6 °F 40.6 °F 30.4 in SSO 5.9 mph 11.5 mph 86% 0 in
08:14 44.4 °F 40.5 °F 30.4 in SSO 5.9 mph 11.5 mph 86% 0 in
08:19 44.4 °F 40.5 °F 30.4 in SSO 6 mph 9.2 mph 86% 0 in
08:24 44.4 °F 40.1 °F 30.4 in SSO 6.4 mph 8.5 mph 85.1% 0 in
08:29 44.2 °F 39.9 °F 30.4 in SSO 6.3 mph 10.4 mph 85% 0 in
08:34 44.2 °F 39.9 °F 30.4 in SSO 5.4 mph 9.7 mph 85% 0 in
08:39 44.1 °F 39.7 °F 30.4 in SSO 5.7 mph 11.5 mph 85% 0 in
08:44 44.1 °F 39.7 °F 30.4 in SSO 6.9 mph 8.5 mph 85% 0 in
08:49 44.1 °F 39.7 °F 30.4 in SSO 6.6 mph 10.4 mph 85% 0 in
08:54 44.1 °F 39.7 °F 30.4 in SSO 5.4 mph 9.7 mph 85% 0 in
08:59 44.1 °F 39.7 °F 30.4 in SSO 5.5 mph 10.7 mph 84.7% 0 in
09:04 43.9 °F 39.7 °F 30.4 in SSO 5.9 mph 8.7 mph 85% 0 in
09:09 43.9 °F 39.7 °F 30.4 in Sur 5.9 mph 9.2 mph 85% 0 in
09:14 43.9 °F 39.7 °F 30.4 in Sur 5.9 mph 8.1 mph 85% 0 in
09:19 44.1 °F 39.7 °F 30.4 in SSO 5.8 mph 8.5 mph 85% 0 in
09:24 44.1 °F 39.9 °F 30.5 in SSO 5.4 mph 9.2 mph 85% 0 in
09:29 44.2 °F 40.1 °F 30.5 in SSO 5.5 mph 8.5 mph 85% 0 in
09:34 44.4 °F 39.9 °F 30.5 in SSO 6.2 mph 10.4 mph 84.1% 0 in
09:39 44.8 °F 40.1 °F 30.5 in SSO 6.2 mph 9.2 mph 84% 0 in
09:44 45 °F 40.3 °F 30.5 in SSO 6.2 mph 8.1 mph 84% 0 in
09:49 45.1 °F 40.5 °F 30.5 in SSO 6.2 mph 8.5 mph 83.5% 0 in
09:54 45.5 °F 40.6 °F 30.5 in SSO 5.9 mph 8.1 mph 83% 0 in
09:59 45.9 °F 40.8 °F 30.5 in SSO 5.8 mph 9.2 mph 82.3% 0 in
10:04 46 °F 41 °F 30.5 in SSO 5.4 mph 6.9 mph 82% 0 in
10:09 46.2 °F 40.8 °F 30.5 in SSO 5.2 mph 10.4 mph 81.7% 0 in
10:14 46.6 °F 41 °F 30.5 in SO 4.3 mph 10.4 mph 81% 0 in
10:19 46.8 °F 41 °F 30.5 in SO 4.5 mph 11.5 mph 80.4% 0 in
10:24 46.8 °F 41 °F 30.5 in SO 6.2 mph 6.9 mph 80% 0 in
10:29 46.9 °F 41.2 °F 30.5 in SO 6 mph 8.5 mph 80% 0 in
10:34 47.1 °F 41.2 °F 30.5 in SSO 4.7 mph 8.1 mph 79.7% 0 in
10:39 47.5 °F 41.4 °F 30.5 in SSO 4.7 mph 9.2 mph 79.5% 0 in
10:44 47.5 °F 41.4 °F 30.5 in SSO 4.7 mph 9.2 mph 79% 0 in
10:49 47.7 °F 41.4 °F 30.5 in SSO 4.7 mph 7.4 mph 78.9% 0 in
10:54 47.7 °F 41.2 °F 30.5 in SSO 4.7 mph 6.9 mph 78% 0 in
10:59 47.8 °F 41 °F 30.5 in SSO 4.7 mph 9.2 mph 77.1% 0 in
11:04 47.8 °F 40.8 °F 30.5 in SSO 4.3 mph 8.1 mph 76.5% 0 in
11:09 48 °F 41.2 °F 30.5 in Sur 4.4 mph 6.9 mph 76.8% 0 in
11:14 48.4 °F 41.2 °F 30.5 in SSO 5.2 mph 9.2 mph 76% 0 in
11:19 48.4 °F 41.2 °F 30.5 in Sur 5.3 mph 10.4 mph 76% 0 in
11:24 48.2 °F 41 °F 30.5 in Sur 6.2 mph 8.1 mph 76% 0 in
11:29 48.4 °F 41.4 °F 30.5 in SSO 6.1 mph 9.2 mph 76.8% 0 in
11:34 48.6 °F 41.5 °F 30.5 in SSO 5.4 mph 8.1 mph 76.3% 0 in
11:39 48.7 °F 41.5 °F 30.5 in Sur 5.3 mph 8.5 mph 76% 0 in
11:44 48.9 °F 41.4 °F 30.5 in SSO 5.2 mph 8.5 mph 75.1% 0 in
11:49 48.9 °F 41.4 °F 30.5 in SSO 5.3 mph 9.7 mph 75% 0 in
11:54 49.1 °F 41.9 °F 30.5 in SSO 6.2 mph 7.4 mph 75.9% 0 in
11:59 49.6 °F 42.3 °F 30.5 in Sur 5.8 mph 6.9 mph 75.8% 0 in
12:04 50.2 °F 42.6 °F 30.5 in Sur 4.3 mph 9.2 mph 74.8% 0 in
12:09 50.4 °F 42.4 °F 30.5 in Sur 4.3 mph 8.5 mph 74% 0 in
12:14 50.7 °F 42.6 °F 30.5 in SSO 4.7 mph 7.4 mph 74% 0 in
12:19 50.9 °F 43 °F 30.5 in SSO 4.7 mph 6.9 mph 74% 0 in
12:24 51.4 °F 43.2 °F 30.5 in Sur 4.7 mph 8.7 mph 73.3% 0 in
12:29 52 °F 43.3 °F 30.5 in Sur 4.8 mph 9.2 mph 72.3% 0 in
12:34 52.3 °F 43.3 °F 30.5 in Sur 5.4 mph 8.1 mph 71.5% 0 in
12:39 52.5 °F 43.3 °F 30.5 in SSE 5.3 mph 8.1 mph 71% 0 in
12:44 52.9 °F 43.5 °F 30.5 in Sur 5.2 mph 8.1 mph 70.1% 0 in
12:49 53.1 °F 43.5 °F 30.5 in SSE 5.2 mph 7.4 mph 70% 0 in
12:54 53.2 °F 43.3 °F 30.5 in Sur 4.7 mph 8.1 mph 69.1% 0 in
12:59 53.8 °F 44.1 °F 30.4 in SSE 4.5 mph 6.2 mph 69.8% 0 in
13:04 54.1 °F 44.1 °F 30.4 in OSO 3.6 mph 5.8 mph 68.5% 0 in
13:09 54.5 °F 44.4 °F 30.4 in OSO 3.4 mph 5.8 mph 68.7% 0 in
13:14 54.9 °F 44.1 °F 30.4 in SO 2 mph 5.8 mph 67% 0 in
13:19 55 °F 44.4 °F 30.4 in ESE 2 mph 5.2 mph 67% 0 in
13:24 55.4 °F 44.2 °F 30.4 in SSO 2 mph 5.9 mph 66.1% 0 in
13:29 55.6 °F 44.4 °F 30.4 in OSO 2.2 mph 5.8 mph 66% 0 in
13:34 55.8 °F 44.6 °F 30.4 in North 3.1 mph 6.2 mph 66.3% 0 in
13:39 55.9 °F 44.8 °F 30.4 in NE 2.9 mph 3.1 mph 66% 0 in
13:44 56.5 °F 45.1 °F 30.4 in ENE 1.8 mph 3.6 mph 65.4% 0 in
13:49 57 °F 45.1 °F 30.4 in NNO 1.8 mph 4.6 mph 64.3% 0 in
13:54 57.4 °F 45.1 °F 30.4 in NO 2 mph 4.6 mph 64% 0 in
13:59 57.6 °F 45.3 °F 30.4 in NNO 2 mph 4.6 mph 63.6% 0 in
14:04 57.6 °F 45.1 °F 30.4 in NNO 2 mph 4.6 mph 63% 0 in
14:09 57.7 °F 45.1 °F 30.4 in ENE 2.1 mph 6.2 mph 62.7% 0 in
14:14 57.9 °F 45 °F 30.4 in NNE 2.4 mph 5.9 mph 62% 0 in
14:19 58.1 °F 45 °F 30.4 in NNO 2.4 mph 4 mph 61.5% 0 in
14:24 58.3 °F 44.8 °F 30.4 in North 2.4 mph 7.6 mph 60.9% 0 in
14:29 58.3 °F 44.8 °F 30.4 in North 2.5 mph 8.1 mph 60.6% 0 in
14:34 58.5 °F 45 °F 30.4 in NNO 3.6 mph 7.6 mph 60.9% 0 in
14:39 58.5 °F 44.6 °F 30.4 in NNE 3.6 mph 8.1 mph 59.8% 0 in
14:44 58.5 °F 44.4 °F 30.4 in NE 3.6 mph 6.9 mph 59.5% 0 in
14:49 58.6 °F 44.2 °F 30.4 in NE 3.6 mph 6.2 mph 59% 0 in
14:54 58.6 °F 44.6 °F 30.4 in NE 3.6 mph 5.9 mph 59.4% 0 in
14:59 59 °F 45 °F 30.4 in ENE 3.7 mph 7.6 mph 59.6% 0 in
15:04 59.2 °F 44.8 °F 30.4 in North 4 mph 8.1 mph 58.9% 0 in
15:09 59.2 °F 44.8 °F 30.4 in NNE 4 mph 9.2 mph 58.6% 0 in
15:14 59.4 °F 44.6 °F 30.4 in NNE 4 mph 6.9 mph 58% 0 in
15:19 59.5 °F 44.1 °F 30.4 in NE 4.2 mph 9.7 mph 56.7% 0 in
15:24 59.5 °F 44.2 °F 30.4 in NNE 5.2 mph 8.1 mph 56.9% 0 in
15:29 59.5 °F 44.1 °F 30.4 in NE 5.2 mph 11.5 mph 56.3% 0 in
15:34 59.7 °F 43.5 °F 30.4 in NE 5.2 mph 11.5 mph 55% 0 in
15:39 59.7 °F 43.2 °F 30.4 in NE 5.4 mph 11.5 mph 54.2% 0 in
15:44 60.1 °F 43.7 °F 30.4 in NE 6.4 mph 12.5 mph 54.4% 0 in
15:49 60.1 °F 43 °F 30.4 in NNE 6.5 mph 12.7 mph 53.2% 0 in
15:54 60.3 °F 43 °F 30.4 in NE 7.4 mph 10.4 mph 52.9% 0 in
15:59 60.4 °F 43.2 °F 30.4 in NE 7 mph 12.7 mph 53% 0 in
16:04 60.4 °F 42.4 °F 30.4 in NE 5.4 mph 12.3 mph 51.6% 0 in
16:09 60.4 °F 42.1 °F 30.4 in NE 5.7 mph 12.7 mph 50.9% 0 in
16:14 60.3 °F 41.7 °F 30.4 in NE 7.6 mph 13.8 mph 50.5% 0 in
16:19 60.4 °F 42.3 °F 30.4 in NE 7.4 mph 10.4 mph 51.4% 0 in
16:24 60.4 °F 41.5 °F 30.4 in NE 6.4 mph 10.7 mph 49.5% 0 in
16:29 60.6 °F 41.5 °F 30.4 in NE 6.3 mph 10.7 mph 49.3% 0 in
16:34 60.6 °F 42.3 °F 30.4 in NE 5.9 mph 9.2 mph 50.7% 0 in
16:39 60.6 °F 42.6 °F 30.4 in NE 6 mph 10.7 mph 51.4% 0 in
16:44 60.6 °F 41.7 °F 30.4 in NE 6.2 mph 11.5 mph 49.7% 0 in
16:49 60.6 °F 42.1 °F 30.4 in NE 6.2 mph 11.8 mph 50.5% 0 in
16:54 60.4 °F 43 °F 30.4 in NE 6.4 mph 11.5 mph 52.2% 0 in
16:59 60.6 °F 43.3 °F 30.4 in NE 6.2 mph 9.2 mph 53% 0 in
17:04 60.6 °F 43.3 °F 30.4 in NE 5.4 mph 9.2 mph 52.8% 0 in
17:09 60.4 °F 43.2 °F 30.4 in NE 5.3 mph 11.5 mph 52.7% 0 in
17:14 60.3 °F 42.4 °F 30.4 in NE 5.2 mph 11.5 mph 51.7% 0 in
17:19 60.3 °F 41.9 °F 30.4 in NE 5.3 mph 11.8 mph 51% 0 in
17:24 60.1 °F 41.4 °F 30.4 in NE 6.2 mph 11.5 mph 50% 0 in
17:29 59.9 °F 40.6 °F 30.4 in NE 6.2 mph 9.2 mph 49.1% 0 in
17:34 59.7 °F 40.5 °F 30.4 in NE 5.9 mph 10.2 mph 49% 0 in
17:39 59.5 °F 39.7 °F 30.4 in NE 6 mph 11.5 mph 48% 0 in
17:44 59.4 °F 39.7 °F 30.4 in NE 6.2 mph 9.2 mph 48% 0 in
17:49 59.2 °F 39.6 °F 30.4 in NE 6.1 mph 8.5 mph 48% 0 in
17:54 58.8 °F 39.7 °F 30.4 in NE 5.4 mph 9.7 mph 49% 0 in
17:59 58.6 °F 40.6 °F 30.4 in NE 5.3 mph 6.9 mph 51.1% 0 in
18:04 58.6 °F 41.7 °F 30.4 in NE 5.2 mph 6.9 mph 53.6% 0 in
18:09 58.5 °F 42.6 °F 30.4 in NE 5 mph 5.8 mph 55.9% 0 in
18:14 58.1 °F 43.2 °F 30.4 in NE 4 mph 5.9 mph 57.6% 0 in
18:19 57.7 °F 43.7 °F 30.4 in NE 3.9 mph 5.2 mph 59.1% 0 in
18:24 57.6 °F 43.9 °F 30.4 in ENE 3.1 mph 5.2 mph 60.4% 0 in
18:29 57.4 °F 44.1 °F 30.4 in Este 3 mph 4.6 mph 61% 0 in
18:34 57 °F 44.1 °F 30.4 in Este 2.9 mph 4.6 mph 62% 0 in
18:39 56.8 °F 44.1 °F 30.4 in Este 2.9 mph 4.6 mph 62.1% 0 in
18:44 56.7 °F 44.2 °F 30.4 in ENE 2.4 mph 3.5 mph 63% 0 in
18:49 56.5 °F 44.1 °F 30.4 in ENE 2.4 mph 3.5 mph 63.4% 0 in
18:54 56.1 °F 44.2 °F 30.4 in NNE 2 mph 4.6 mph 64.3% 0 in
18:59 55.9 °F 44.4 °F 30.4 in NNE 2.2 mph 5.2 mph 65.6% 0 in
19:04 55.8 °F 44.8 °F 30.4 in NNE 2.9 mph 5.4 mph 67% 0 in
19:09 55.4 °F 45 °F 30.4 in NE 3.1 mph 5.9 mph 68% 0 in
19:14 55 °F 44.8 °F 30.4 in NE 4 mph 5.8 mph 68% 0 in
19:19 55 °F 44.6 °F 30.4 in NE 3.9 mph 5.2 mph 68% 0 in
19:24 54.9 °F 44.8 °F 30.4 in NE 3.6 mph 4.6 mph 68.7% 0 in
19:29 54.7 °F 44.6 °F 30.4 in NE 3.5 mph 4.6 mph 69% 0 in
19:34 54.3 °F 44.6 °F 30.4 in NE 2.9 mph 4.6 mph 69.5% 0 in
19:39 54.1 °F 44.6 °F 30.4 in NNE 2.9 mph 4.6 mph 70.4% 0 in
19:44 54 °F 44.8 °F 30.4 in NE 3.1 mph 3.1 mph 71.1% 0 in
19:49 53.6 °F 44.8 °F 30.4 in NE 2.9 mph 4.6 mph 72% 0 in
19:54 53.2 °F 44.8 °F 30.4 in North 2 mph 3.5 mph 73% 0 in
19:59 52.9 °F 44.8 °F 30.4 in North 1.9 mph 2.9 mph 73.9% 0 in
20:04 52.5 °F 44.8 °F 30.4 in North 1.8 mph 3.5 mph 74.9% 0 in
20:09 52.3 °F 45 °F 30.4 in NE 1.8 mph 2.9 mph 75.9% 0 in
20:14 52.2 °F 45.1 °F 30.4 in NE 2 mph 2.4 mph 76.8% 0 in
20:19 52 °F 45.1 °F 30.4 in NE 2 mph 3.6 mph 77.4% 0 in
20:24 51.6 °F 45 °F 30.4 in NE 1.8 mph 4.6 mph 78.1% 0 in
20:29 51.4 °F 45.1 °F 30.4 in NE 2 mph 4.6 mph 79% 0 in
20:34 51.3 °F 45 °F 30.4 in NE 2.9 mph 4.7 mph 79% 0 in
20:39 50.9 °F 45 °F 30.4 in NE 2.9 mph 5.4 mph 80% 0 in
20:44 50.7 °F 45 °F 30.4 in NE 3.1 mph 5.8 mph 80.7% 0 in
20:49 50.5 °F 45 °F 30.4 in NE 3.1 mph 4.6 mph 81% 0 in
20:54 50.5 °F 45 °F 30.4 in NNE 3.1 mph 5.2 mph 81.2% 0 in
20:59 50.4 °F 45.1 °F 30.4 in NE 3.2 mph 5.2 mph 82% 0 in
21:04 50.4 °F 45.1 °F 30.4 in NE 3.6 mph 4.7 mph 82% 0 in
21:09 50.2 °F 45 °F 30.4 in NNE 3.5 mph 4.7 mph 82% 0 in
21:14 50.2 °F 45 °F 30.4 in NE 3.1 mph 4.6 mph 82.3% 0 in
21:19 50.2 °F 45 °F 30.4 in ENE 3 mph 4.6 mph 82.3% 0 in
21:24 50.2 °F 45 °F 30.4 in ENE 2.9 mph 2.4 mph 82% 0 in
21:29 50 °F 44.6 °F 30.4 in ENE 2.7 mph 2.9 mph 82% 0 in
21:34 49.8 °F 44.4 °F 30.4 in ENE 1.4 mph 2.9 mph 82% 0 in
21:39 49.6 °F 44.4 °F 30.4 in NE 1.4 mph 3.6 mph 82% 0 in
21:44 49.5 °F 44.4 °F 30.4 in ONO 1.8 mph 4.6 mph 82.9% 0 in
21:49 49.3 °F 44.2 °F 30.4 in ONO 1.8 mph 4.6 mph 83% 0 in
21:54 48.9 °F 44.1 °F 30.5 in ONO 2 mph 2.4 mph 83% 0 in
21:59 48.7 °F 43.9 °F 30.5 in ONO 1.6 mph   83% 0 in
22:04 48.7 °F 44.1 °F 30.5 in Calm   4.6 mph 83.9% 0 in
22:09 48.6 °F 43.9 °F 30.5 in ONO 0.3 mph 3.5 mph 84% 0 in
22:14 48.6 °F 43.9 °F 30.5 in ONO 2 mph 2.3 mph 84% 0 in
22:19 48.4 °F 43.9 °F 30.5 in ONO 1.7 mph 2.4 mph 84% 0 in
22:24 48.4 °F 43.9 °F 30.5 in Calm   3.6 mph 84% 0 in
22:29 48.4 °F 43.7 °F 30.5 in SE 0.4 mph 4.7 mph 83.7% 0 in
22:34 47.8 °F 42.8 °F 30.5 in SE 2.4 mph 4.7 mph 82.5% 0 in
22:39 47.5 °F 42.3 °F 30.5 in Sur 2.5 mph 4.7 mph 82% 0 in
22:44 47.1 °F 41.9 °F 30.5 in Sur 3.1 mph 5.2 mph 82% 0 in
22:49 47.1 °F 41.7 °F 30.5 in Sur 3.2 mph 5.9 mph 81.5% 0 in
22:54 47.1 °F 41.5 °F 30.5 in Sur 3.6 mph 5.8 mph 81% 0 in
22:59 47.1 °F 41.4 °F 30.5 in Sur 3.6 mph 5.2 mph 80.3% 0 in
23:04 47.1 °F 41 °F 30.5 in Sur 3.6 mph 6.9 mph 79.4% 0 in
23:09 46.9 °F 40.5 °F 30.5 in SSE 3.7 mph 5.8 mph 78.3% 0 in
23:14 46.8 °F 40.3 °F 30.5 in Sur 4 mph 6.2 mph 78% 0 in
23:19 46.8 °F 40.3 °F 30.5 in SSO 4 mph 5.9 mph 78.1% 0 in
23:24 46.8 °F 40.6 °F 30.5 in SO 4.3 mph 6.2 mph 79% 0 in
23:29 46.8 °F 40.6 °F 30.5 in SO 4.2 mph 5.2 mph 79% 0 in
23:34 46.8 °F 40.8 °F 30.5 in SSO 3.6 mph 4.7 mph 79.9% 0 in
Murcia-Puente Tocinos, Espa?a
Compliments of Weather Underground - 3 mb

La estación de MeteoMurcia.com, publica sus datos en los siguientes proyectos:

Weather Underground PWS IMURCIAP2 Meteoclimatic www.awekas.at

W3Counter
Web Analytics